RPB7478 SKBO-MKJS
Flight info
| Callsign | RPB7478 |
|---|---|
| Flight time | 2h 9m |
| Altitude | 38000 |
| Route | DANSA4R GIKPU DCT MGN UW3 BAQ DCT KILER DCT TABRI OMAXI7 |
| Aircraft | B738/M-SDE2E3FGHIRWXY/LB1 |
Departure
| Time | 2026-05-08 13:27 |
|---|---|
| Airport | El Dorado International Airport (SKBO) |
Arrival
| Time | 2026-05-08 15:36 |
|---|---|
| Airport | Sangster International Airport (MKJS) |
| Time | Latitude | Longitude | Altitude | Speed | Heading |
|---|---|---|---|---|---|
| 2026-05-08 13:07 | 4.69786 | -74.14533 | 8369 ft | 0 kts | 36° |
| 2026-05-08 13:16 | 4.69773 | -74.14543 | 8370 ft | 4 kts | 37° |
| 2026-05-08 13:16 | 4.69751 | -74.14557 | 8369 ft | 4 kts | 6° |
| 2026-05-08 13:16 | 4.69729 | -74.14551 | 8369 ft | 4 kts | 312° |
| 2026-05-08 13:16 | 4.69723 | -74.14544 | 8369 ft | 1 kts | 306° |
| 2026-05-08 13:20 | 4.69725 | -74.14546 | 8369 ft | 1 kts | 306° |
| 2026-05-08 13:20 | 4.69736 | -74.14562 | 8370 ft | 5 kts | 307° |
| 2026-05-08 13:21 | 4.69763 | -74.14597 | 8369 ft | 8 kts | 308° |
| 2026-05-08 13:21 | 4.69799 | -74.14645 | 8369 ft | 11 kts | 307° |
| 2026-05-08 13:21 | 4.69852 | -74.14715 | 8370 ft | 14 kts | 306° |
| 2026-05-08 13:21 | 4.69914 | -74.14800 | 8369 ft | 16 kts | 307° |
| 2026-05-08 13:22 | 4.69933 | -74.14883 | 8369 ft | 13 kts | 240° |
| 2026-05-08 13:22 | 4.69947 | -74.14959 | 8370 ft | 13 kts | 305° |
| 2026-05-08 13:22 | 4.70000 | -74.15029 | 8370 ft | 12 kts | 307° |
| 2026-05-08 13:22 | 4.70052 | -74.15098 | 8370 ft | 13 kts | 307° |
| 2026-05-08 13:23 | 4.70108 | -74.15172 | 8369 ft | 14 kts | 307° |
| 2026-05-08 13:23 | 4.70168 | -74.15251 | 8369 ft | 15 kts | 307° |
| 2026-05-08 13:23 | 4.70232 | -74.15336 | 8369 ft | 16 kts | 307° |
| 2026-05-08 13:23 | 4.70300 | -74.15426 | 8369 ft | 17 kts | 307° |
| 2026-05-08 13:24 | 4.70372 | -74.15519 | 8369 ft | 17 kts | 308° |
| 2026-05-08 13:24 | 4.70420 | -74.15581 | 8369 ft | 17 kts | 308° |
| 2026-05-08 13:24 | 4.70518 | -74.15702 | 8369 ft | 17 kts | 309° |
| 2026-05-08 13:24 | 4.70567 | -74.15763 | 8369 ft | 17 kts | 309° |
| 2026-05-08 13:25 | 4.70577 | -74.15847 | 8369 ft | 13 kts | 226° |
| 2026-05-08 13:25 | 4.70508 | -74.15897 | 8369 ft | 13 kts | 216° |
| 2026-05-08 13:25 | 4.70439 | -74.15950 | 8370 ft | 12 kts | 218° |
| 2026-05-08 13:25 | 4.70377 | -74.15994 | 8371 ft | 9 kts | 185° |
| 2026-05-08 13:26 | 4.70339 | -74.15970 | 8371 ft | 0 kts | 128° |
| 2026-05-08 13:26 | 4.70265 | -74.15872 | 8370 ft | 49 kts | 127° |
| 2026-05-08 13:26 | 4.69924 | -74.15422 | 8372 ft | 112 kts | 127° |
| 2026-05-08 13:26 | 4.69342 | -74.14650 | 8370 ft | 164 kts | 126° |
| 2026-05-08 13:27 | 4.68603 | -74.13690 | 8809 ft | 178 kts | 123° |
| 2026-05-08 13:27 | 4.67789 | -74.12722 | 9439 ft | 190 kts | 148° |
| 2026-05-08 13:27 | 4.66504 | -74.12490 | 10144 ft | 196 kts | 190° |
| 2026-05-08 13:27 | 4.65222 | -74.13137 | 10398 ft | 223 kts | 223° |
| 2026-05-08 13:28 | 4.64316 | -74.14475 | 10626 ft | 244 kts | 245° |
| 2026-05-08 13:28 | 4.63635 | -74.16067 | 11073 ft | 250 kts | 245° |
| 2026-05-08 13:28 | 4.62931 | -74.17690 | 11567 ft | 255 kts | 244° |
| 2026-05-08 13:28 | 4.62211 | -74.19317 | 12182 ft | 256 kts | 245° |
| 2026-05-08 13:29 | 4.61510 | -74.20947 | 12648 ft | 263 kts | 249° |
| 2026-05-08 13:29 | 4.61063 | -74.22795 | 12813 ft | 283 kts | 259° |
| 2026-05-08 13:29 | 4.60717 | -74.24794 | 13033 ft | 297 kts | 259° |
| 2026-05-08 13:29 | 4.60412 | -74.26852 | 13514 ft | 300 kts | 261° |
| 2026-05-08 13:30 | 4.60128 | -74.28925 | 14063 ft | 303 kts | 261° |
| 2026-05-08 13:30 | 4.59845 | -74.31034 | 14655 ft | 305 kts | 261° |
| 2026-05-08 13:30 | 4.59564 | -74.33154 | 15350 ft | 307 kts | 262° |
| 2026-05-08 13:30 | 4.59282 | -74.35284 | 16089 ft | 309 kts | 262° |
| 2026-05-08 13:31 | 4.59128 | -74.37433 | 16752 ft | 311 kts | 276° |
| 2026-05-08 13:31 | 4.59757 | -74.39495 | 17436 ft | 313 kts | 301° |
| 2026-05-08 13:31 | 4.61172 | -74.41136 | 18109 ft | 314 kts | 325° |
| 2026-05-08 13:31 | 4.63136 | -74.42073 | 18723 ft | 315 kts | 349° |
| 2026-05-08 13:32 | 4.65314 | -74.42262 | 19308 ft | 316 kts | 6° |
| 2026-05-08 13:32 | 4.67429 | -74.41709 | 19886 ft | 316 kts | 25° |
| 2026-05-08 13:32 | 4.69427 | -74.40760 | 20505 ft | 319 kts | 27° |
| 2026-05-08 13:32 | 4.71423 | -74.39752 | 21060 ft | 324 kts | 28° |
| 2026-05-08 13:33 | 4.73491 | -74.38698 | 21209 ft | 344 kts | 27° |
| 2026-05-08 13:33 | 4.75688 | -74.37585 | 21357 ft | 363 kts | 27° |
| 2026-05-08 13:33 | 4.78000 | -74.36428 | 21473 ft | 380 kts | 27° |
| 2026-05-08 13:33 | 4.80420 | -74.35228 | 21623 ft | 396 kts | 26° |
| 2026-05-08 13:34 | 4.82937 | -74.33990 | 21725 ft | 410 kts | 26° |
| 2026-05-08 13:34 | 4.85547 | -74.32713 | 21802 ft | 423 kts | 26° |
| 2026-05-08 13:34 | 4.88230 | -74.31404 | 21868 ft | 435 kts | 26° |
| 2026-05-08 13:34 | 4.90989 | -74.30060 | 21935 ft | 445 kts | 26° |
| 2026-05-08 13:35 | 4.93803 | -74.28690 | 21947 ft | 454 kts | 26° |
| 2026-05-08 13:35 | 4.96671 | -74.27294 | 22051 ft | 461 kts | 26° |
| 2026-05-08 13:35 | 4.99569 | -74.25884 | 22299 ft | 463 kts | 26° |
| 2026-05-08 13:35 | 5.02469 | -74.24472 | 22628 ft | 464 kts | 26° |
| 2026-05-08 13:36 | 5.05376 | -74.23056 | 22915 ft | 465 kts | 26° |
| 2026-05-08 13:36 | 5.08253 | -74.21655 | 23159 ft | 467 kts | 26° |
| 2026-05-08 13:36 | 5.11185 | -74.20227 | 23470 ft | 470 kts | 26° |
| 2026-05-08 13:36 | 5.14131 | -74.18791 | 23668 ft | 471 kts | 26° |
| 2026-05-08 13:37 | 5.17083 | -74.17352 | 23907 ft | 473 kts | 26° |
| 2026-05-08 13:37 | 5.20049 | -74.15906 | 24106 ft | 474 kts | 26° |
| 2026-05-08 13:37 | 5.23025 | -74.14456 | 24280 ft | 476 kts | 26° |
| 2026-05-08 13:37 | 5.26013 | -74.12999 | 24469 ft | 478 kts | 26° |
| 2026-05-08 13:38 | 5.28999 | -74.11543 | 24605 ft | 480 kts | 26° |
| 2026-05-08 13:38 | 5.32013 | -74.10074 | 24786 ft | 481 kts | 26° |
| 2026-05-08 13:38 | 5.35034 | -74.08600 | 24972 ft | 483 kts | 26° |
| 2026-05-08 13:38 | 5.38058 | -74.07125 | 25159 ft | 485 kts | 26° |
| 2026-05-08 13:39 | 5.41096 | -74.05643 | 25342 ft | 486 kts | 26° |
| 2026-05-08 13:39 | 5.44140 | -74.04158 | 25464 ft | 487 kts | 26° |
| 2026-05-08 13:39 | 5.47192 | -74.02670 | 25637 ft | 489 kts | 26° |
| 2026-05-08 13:39 | 5.50257 | -74.01174 | 25805 ft | 490 kts | 26° |
| 2026-05-08 13:40 | 5.53322 | -73.99678 | 25990 ft | 491 kts | 26° |
| 2026-05-08 13:40 | 5.56397 | -73.98177 | 26108 ft | 492 kts | 25° |
| 2026-05-08 13:40 | 5.59483 | -73.96671 | 26245 ft | 494 kts | 26° |
| 2026-05-08 13:40 | 5.62573 | -73.95162 | 26396 ft | 495 kts | 25° |
| 2026-05-08 13:41 | 5.65680 | -73.93645 | 26548 ft | 497 kts | 25° |
| 2026-05-08 13:41 | 5.68789 | -73.92127 | 26695 ft | 498 kts | 25° |
| 2026-05-08 13:41 | 5.71906 | -73.90605 | 26801 ft | 499 kts | 25° |
| 2026-05-08 13:41 | 5.75036 | -73.89077 | 26947 ft | 500 kts | 26° |
| 2026-05-08 13:42 | 5.78159 | -73.87551 | 27132 ft | 500 kts | 25° |
| 2026-05-08 13:42 | 5.81291 | -73.86020 | 27316 ft | 500 kts | 25° |
| 2026-05-08 13:42 | 5.84412 | -73.84495 | 27539 ft | 499 kts | 25° |
| 2026-05-08 13:42 | 5.87524 | -73.82974 | 27860 ft | 494 kts | 25° |
| 2026-05-08 13:43 | 5.90602 | -73.81469 | 28288 ft | 490 kts | 25° |
| 2026-05-08 13:43 | 5.93666 | -73.79971 | 28527 ft | 490 kts | 25° |
| 2026-05-08 13:43 | 5.96735 | -73.78471 | 28671 ft | 492 kts | 25° |
| 2026-05-08 13:43 | 5.99908 | -73.77186 | 28768 ft | 492 kts | 14° |
| 2026-05-08 13:44 | 6.03287 | -73.76721 | 29003 ft | 490 kts | 360° |
| 2026-05-08 13:44 | 6.06661 | -73.77020 | 29318 ft | 487 kts | 347° |
| 2026-05-08 13:44 | 6.09896 | -73.77992 | 29624 ft | 484 kts | 340° |
| 2026-05-08 13:44 | 6.13086 | -73.79095 | 29894 ft | 484 kts | 340° |
| 2026-05-08 13:45 | 6.16227 | -73.80190 | 30068 ft | 485 kts | 340° |
| 2026-05-08 13:45 | 6.19452 | -73.81306 | 30304 ft | 484 kts | 340° |
| 2026-05-08 13:45 | 6.22599 | -73.82379 | 30567 ft | 483 kts | 341° |
| 2026-05-08 13:45 | 6.25777 | -73.83450 | 30894 ft | 480 kts | 341° |
| 2026-05-08 13:46 | 6.28937 | -73.84505 | 31179 ft | 478 kts | 341° |
| 2026-05-08 13:46 | 6.32101 | -73.85556 | 31438 ft | 478 kts | 341° |
| 2026-05-08 13:46 | 6.35255 | -73.86602 | 31704 ft | 478 kts | 341° |
| 2026-05-08 13:46 | 6.38412 | -73.87648 | 31983 ft | 477 kts | 341° |
| 2026-05-08 13:47 | 6.41556 | -73.88690 | 32284 ft | 475 kts | 341° |
| 2026-05-08 13:47 | 6.44693 | -73.89731 | 32577 ft | 474 kts | 341° |
| 2026-05-08 13:47 | 6.47825 | -73.90770 | 32869 ft | 474 kts | 341° |
| 2026-05-08 13:47 | 6.50955 | -73.91810 | 33163 ft | 473 kts | 341° |
| 2026-05-08 13:48 | 6.54071 | -73.92845 | 33467 ft | 472 kts | 341° |
| 2026-05-08 13:48 | 6.57183 | -73.93879 | 33766 ft | 471 kts | 341° |
| 2026-05-08 13:48 | 6.60301 | -73.94915 | 33938 ft | 474 kts | 341° |
| 2026-05-08 13:48 | 6.63452 | -73.95963 | 33960 ft | 480 kts | 341° |
| 2026-05-08 13:49 | 6.66621 | -73.97017 | 34133 ft | 480 kts | 341° |
| 2026-05-08 13:49 | 6.69787 | -73.98069 | 34446 ft | 478 kts | 341° |
| 2026-05-08 13:49 | 6.72937 | -73.99116 | 34785 ft | 475 kts | 341° |
| 2026-05-08 13:49 | 6.76073 | -74.00159 | 35078 ft | 474 kts | 341° |
| 2026-05-08 13:50 | 6.79204 | -74.01200 | 35277 ft | 475 kts | 340° |
| 2026-05-08 13:50 | 6.82351 | -74.02246 | 35425 ft | 477 kts | 340° |
| 2026-05-08 13:50 | 6.85504 | -74.03295 | 35665 ft | 477 kts | 340° |
| 2026-05-08 13:50 | 6.88646 | -74.04341 | 35978 ft | 474 kts | 340° |
| 2026-05-08 13:51 | 6.91771 | -74.05380 | 36275 ft | 472 kts | 340° |
| 2026-05-08 13:51 | 6.94890 | -74.06418 | 36541 ft | 472 kts | 340° |
| 2026-05-08 13:51 | 6.97999 | -74.07453 | 36781 ft | 471 kts | 340° |
| 2026-05-08 13:51 | 7.01114 | -74.08490 | 37037 ft | 471 kts | 340° |
| 2026-05-08 13:52 | 7.04217 | -74.09524 | 37309 ft | 470 kts | 341° |
| 2026-05-08 13:52 | 7.07319 | -74.10557 | 37565 ft | 469 kts | 341° |
| 2026-05-08 13:52 | 7.10411 | -74.11586 | 37803 ft | 468 kts | 341° |
| 2026-05-08 13:52 | 7.13506 | -74.12618 | 37926 ft | 470 kts | 341° |
| 2026-05-08 13:53 | 7.19688 | -74.14677 | 37926 ft | 470 kts | 341° |
| 2026-05-08 13:53 | 7.25869 | -74.16737 | 37924 ft | 467 kts | 341° |
| 2026-05-08 13:54 | 7.32025 | -74.18789 | 37943 ft | 465 kts | 340° |
| 2026-05-08 13:54 | 7.38151 | -74.20832 | 37937 ft | 463 kts | 340° |
| 2026-05-08 13:55 | 7.44264 | -74.22871 | 37951 ft | 462 kts | 340° |
| 2026-05-08 13:56 | 7.53426 | -74.25928 | 37957 ft | 463 kts | 340° |
| 2026-05-08 13:56 | 7.59545 | -74.27971 | 37956 ft | 464 kts | 340° |
| 2026-05-08 13:57 | 7.65672 | -74.30017 | 37968 ft | 465 kts | 340° |
| 2026-05-08 13:57 | 7.71817 | -74.32070 | 37966 ft | 466 kts | 340° |
| 2026-05-08 13:58 | 7.77983 | -74.34129 | 37961 ft | 467 kts | 340° |
| 2026-05-08 13:58 | 7.84151 | -74.36191 | 37953 ft | 467 kts | 340° |
| 2026-05-08 13:59 | 7.90322 | -74.38254 | 37959 ft | 467 kts | 341° |
| 2026-05-08 13:59 | 7.96499 | -74.40320 | 37957 ft | 467 kts | 341° |
| 2026-05-08 14:00 | 8.02673 | -74.42385 | 37954 ft | 468 kts | 341° |
| 2026-05-08 14:00 | 8.08841 | -74.44449 | 37954 ft | 466 kts | 340° |
| 2026-05-08 14:01 | 8.14989 | -74.46507 | 37933 ft | 465 kts | 340° |
| 2026-05-08 14:01 | 8.21121 | -74.48560 | 37941 ft | 463 kts | 340° |
| 2026-05-08 14:02 | 8.27235 | -74.50608 | 37912 ft | 463 kts | 340° |
| 2026-05-08 14:02 | 8.33338 | -74.52654 | 37924 ft | 462 kts | 340° |
| 2026-05-08 14:03 | 8.39434 | -74.54697 | 37919 ft | 462 kts | 340° |
| 2026-05-08 14:03 | 8.45529 | -74.56741 | 37914 ft | 462 kts | 341° |
| 2026-05-08 14:04 | 8.51627 | -74.58786 | 37915 ft | 462 kts | 341° |
| 2026-05-08 14:04 | 8.57733 | -74.60834 | 37916 ft | 462 kts | 341° |
| 2026-05-08 14:05 | 8.63843 | -74.62885 | 37902 ft | 463 kts | 341° |
| 2026-05-08 14:05 | 8.69959 | -74.64938 | 37901 ft | 463 kts | 341° |
| 2026-05-08 14:06 | 8.76080 | -74.66994 | 37906 ft | 464 kts | 341° |
| 2026-05-08 14:06 | 8.82199 | -74.69050 | 37903 ft | 463 kts | 341° |
| 2026-05-08 14:07 | 8.88324 | -74.71109 | 37897 ft | 463 kts | 341° |
| 2026-05-08 14:07 | 8.94436 | -74.73164 | 37898 ft | 463 kts | 341° |
| 2026-05-08 14:08 | 9.00551 | -74.75220 | 37898 ft | 463 kts | 341° |
| 2026-05-08 14:08 | 9.06656 | -74.77275 | 37897 ft | 462 kts | 341° |
| 2026-05-08 14:09 | 9.12759 | -74.79329 | 37898 ft | 462 kts | 341° |
| 2026-05-08 14:09 | 9.18857 | -74.81383 | 37914 ft | 462 kts | 341° |
| 2026-05-08 14:10 | 9.24946 | -74.83434 | 37904 ft | 461 kts | 341° |
| 2026-05-08 14:10 | 9.31191 | -74.84828 | 37898 ft | 461 kts | 357° |
| 2026-05-08 14:11 | 9.37551 | -74.84848 | 37905 ft | 461 kts | 360° |
| 2026-05-08 14:11 | 9.43962 | -74.84841 | 37900 ft | 460 kts | 359° |
| 2026-05-08 14:12 | 9.50362 | -74.84901 | 37906 ft | 460 kts | 359° |
| 2026-05-08 14:12 | 9.56765 | -74.84961 | 37901 ft | 459 kts | 359° |
| 2026-05-08 14:13 | 9.63154 | -74.85014 | 37903 ft | 459 kts | 359° |
| 2026-05-08 14:13 | 9.68459 | -74.85058 | 37889 ft | 459 kts | 359° |
| 2026-05-08 14:14 | 9.74834 | -74.85111 | 37904 ft | 458 kts | 359° |
| 2026-05-08 14:14 | 9.81212 | -74.85165 | 37893 ft | 458 kts | 359° |
| 2026-05-08 14:15 | 9.87583 | -74.85219 | 37911 ft | 458 kts | 359° |
| 2026-05-08 14:15 | 9.93958 | -74.85273 | 37889 ft | 458 kts | 359° |
| 2026-05-08 14:16 | 10.00328 | -74.85327 | 37889 ft | 458 kts | 359° |
| 2026-05-08 14:16 | 10.06693 | -74.85381 | 37893 ft | 458 kts | 359° |
| 2026-05-08 14:17 | 10.13061 | -74.85435 | 37894 ft | 458 kts | 359° |
| 2026-05-08 14:17 | 10.19425 | -74.85489 | 37885 ft | 458 kts | 359° |
| 2026-05-08 14:18 | 10.25796 | -74.85543 | 37893 ft | 457 kts | 358° |
| 2026-05-08 14:18 | 10.32160 | -74.85597 | 37890 ft | 457 kts | 358° |
| 2026-05-08 14:19 | 10.38524 | -74.85651 | 37892 ft | 457 kts | 358° |
| 2026-05-08 14:19 | 10.44887 | -74.85705 | 37899 ft | 457 kts | 358° |
| 2026-05-08 14:20 | 10.51255 | -74.85759 | 37889 ft | 457 kts | 358° |
| 2026-05-08 14:20 | 10.57613 | -74.85814 | 37893 ft | 457 kts | 358° |
| 2026-05-08 14:21 | 10.63965 | -74.85868 | 37902 ft | 457 kts | 358° |
| 2026-05-08 14:21 | 10.70329 | -74.85922 | 37913 ft | 457 kts | 358° |
| 2026-05-08 14:22 | 10.76681 | -74.86019 | 37901 ft | 457 kts | 354° |
| 2026-05-08 14:22 | 10.82840 | -74.87467 | 37907 ft | 455 kts | 336° |
| 2026-05-08 14:23 | 10.88583 | -74.90165 | 37909 ft | 455 kts | 334° |
| 2026-05-08 14:23 | 10.94256 | -74.92918 | 37904 ft | 455 kts | 334° |
| 2026-05-08 14:24 | 11.00020 | -74.95681 | 37909 ft | 455 kts | 334° |
| 2026-05-08 14:24 | 11.05711 | -74.98381 | 37897 ft | 454 kts | 334° |
| 2026-05-08 14:25 | 11.11005 | -75.00885 | 37896 ft | 454 kts | 334° |
| 2026-05-08 14:25 | 11.16733 | -75.03594 | 37899 ft | 454 kts | 334° |
| 2026-05-08 14:26 | 11.22462 | -75.06304 | 37896 ft | 454 kts | 334° |
| 2026-05-08 14:26 | 11.28179 | -75.09012 | 37903 ft | 453 kts | 334° |
| 2026-05-08 14:27 | 11.33893 | -75.11719 | 37904 ft | 452 kts | 334° |
| 2026-05-08 14:27 | 11.39588 | -75.14419 | 37890 ft | 451 kts | 334° |
| 2026-05-08 14:28 | 11.45273 | -75.17115 | 37906 ft | 450 kts | 334° |
| 2026-05-08 14:28 | 11.50946 | -75.19807 | 37893 ft | 449 kts | 334° |
| 2026-05-08 14:29 | 11.56606 | -75.22493 | 37904 ft | 449 kts | 334° |
| 2026-05-08 14:29 | 11.62267 | -75.25181 | 37920 ft | 449 kts | 334° |
| 2026-05-08 14:30 | 11.67931 | -75.27873 | 37901 ft | 450 kts | 335° |
| 2026-05-08 14:30 | 11.73606 | -75.30570 | 37919 ft | 451 kts | 335° |
| 2026-05-08 14:31 | 11.79302 | -75.33278 | 37918 ft | 452 kts | 335° |
| 2026-05-08 14:31 | 11.85011 | -75.35994 | 37915 ft | 453 kts | 335° |
| 2026-05-08 14:32 | 11.93601 | -75.40083 | 37908 ft | 454 kts | 335° |
| 2026-05-08 14:32 | 11.99333 | -75.42813 | 37928 ft | 454 kts | 335° |
| 2026-05-08 14:33 | 12.05071 | -75.45548 | 37915 ft | 456 kts | 335° |
| 2026-05-08 14:33 | 12.10818 | -75.48288 | 37933 ft | 456 kts | 335° |
| 2026-05-08 14:34 | 12.16577 | -75.51034 | 37937 ft | 457 kts | 335° |
| 2026-05-08 14:34 | 12.22309 | -75.53769 | 37924 ft | 458 kts | 335° |
| 2026-05-08 14:35 | 12.28114 | -75.56541 | 37938 ft | 458 kts | 335° |
| 2026-05-08 14:35 | 12.33881 | -75.59296 | 37933 ft | 458 kts | 335° |
| 2026-05-08 14:36 | 12.39612 | -75.62035 | 37934 ft | 458 kts | 335° |
| 2026-05-08 14:36 | 12.45378 | -75.64792 | 37943 ft | 457 kts | 335° |
| 2026-05-08 14:37 | 12.51135 | -75.67545 | 37934 ft | 457 kts | 335° |
| 2026-05-08 14:37 | 12.56898 | -75.70303 | 37936 ft | 457 kts | 335° |
| 2026-05-08 14:38 | 12.62649 | -75.73057 | 37949 ft | 456 kts | 335° |
| 2026-05-08 14:38 | 12.68403 | -75.75814 | 37940 ft | 456 kts | 335° |
| 2026-05-08 14:39 | 12.74148 | -75.78567 | 37938 ft | 456 kts | 335° |
| 2026-05-08 14:39 | 12.79903 | -75.81327 | 37954 ft | 456 kts | 335° |
| 2026-05-08 14:40 | 12.85650 | -75.84085 | 37941 ft | 456 kts | 335° |
| 2026-05-08 14:40 | 12.91401 | -75.86846 | 37952 ft | 456 kts | 335° |
| 2026-05-08 14:41 | 12.97149 | -75.89606 | 37957 ft | 456 kts | 335° |
| 2026-05-08 14:41 | 13.02897 | -75.92368 | 37943 ft | 457 kts | 335° |
| 2026-05-08 14:42 | 13.08640 | -75.95130 | 37958 ft | 456 kts | 335° |
| 2026-05-08 14:42 | 13.14354 | -75.97878 | 37961 ft | 456 kts | 335° |
| 2026-05-08 14:43 | 13.20108 | -76.00648 | 37947 ft | 457 kts | 335° |
| 2026-05-08 14:43 | 13.25856 | -76.03415 | 37965 ft | 457 kts | 335° |
| 2026-05-08 14:44 | 13.31610 | -76.06187 | 37959 ft | 457 kts | 335° |
| 2026-05-08 14:44 | 13.37365 | -76.08962 | 37953 ft | 457 kts | 335° |
| 2026-05-08 14:45 | 13.43117 | -76.11736 | 37962 ft | 457 kts | 335° |
| 2026-05-08 14:45 | 13.48871 | -76.14513 | 37953 ft | 457 kts | 335° |
| 2026-05-08 14:46 | 13.54627 | -76.17292 | 37959 ft | 458 kts | 335° |
| 2026-05-08 14:46 | 13.60395 | -76.20078 | 37974 ft | 458 kts | 335° |
| 2026-05-08 14:47 | 13.66171 | -76.22870 | 37967 ft | 459 kts | 335° |
| 2026-05-08 14:47 | 13.71945 | -76.25662 | 37965 ft | 459 kts | 335° |
| 2026-05-08 14:48 | 13.77731 | -76.28462 | 37971 ft | 459 kts | 335° |
| 2026-05-08 14:48 | 13.83516 | -76.31262 | 37966 ft | 460 kts | 335° |
| 2026-05-08 14:49 | 13.89300 | -76.34064 | 37965 ft | 460 kts | 335° |
| 2026-05-08 14:49 | 13.95084 | -76.36867 | 37972 ft | 459 kts | 335° |
| 2026-05-08 14:50 | 14.00873 | -76.39675 | 37966 ft | 459 kts | 335° |
| 2026-05-08 14:50 | 14.06652 | -76.42479 | 37964 ft | 459 kts | 335° |
| 2026-05-08 14:51 | 14.12392 | -76.45265 | 37976 ft | 459 kts | 335° |
| 2026-05-08 14:51 | 14.18211 | -76.48092 | 37969 ft | 459 kts | 335° |
| 2026-05-08 14:52 | 14.26841 | -76.52287 | 37972 ft | 460 kts | 335° |
| 2026-05-08 14:53 | 14.32622 | -76.55099 | 37971 ft | 460 kts | 335° |
| 2026-05-08 14:53 | 14.38405 | -76.57914 | 37980 ft | 460 kts | 335° |
| 2026-05-08 14:54 | 14.44204 | -76.60738 | 37977 ft | 460 kts | 335° |
| 2026-05-08 14:54 | 14.49993 | -76.63559 | 37973 ft | 461 kts | 335° |
| 2026-05-08 14:55 | 14.55788 | -76.66385 | 37985 ft | 460 kts | 335° |
| 2026-05-08 14:55 | 14.61583 | -76.69212 | 37977 ft | 461 kts | 335° |
| 2026-05-08 14:56 | 14.67375 | -76.72039 | 37973 ft | 461 kts | 335° |
| 2026-05-08 14:56 | 14.73173 | -76.74871 | 37987 ft | 461 kts | 335° |
| 2026-05-08 14:57 | 14.78970 | -76.77705 | 37980 ft | 461 kts | 335° |
| 2026-05-08 14:57 | 14.84757 | -76.80535 | 37978 ft | 461 kts | 335° |
| 2026-05-08 14:58 | 14.90553 | -76.83372 | 37992 ft | 460 kts | 335° |
| 2026-05-08 14:58 | 14.96346 | -76.86208 | 37984 ft | 461 kts | 335° |
| 2026-05-08 14:59 | 15.02237 | -76.88801 | 37984 ft | 460 kts | 343° |
| 2026-05-08 14:59 | 15.11509 | -76.91456 | 37985 ft | 461 kts | 345° |
| 2026-05-08 15:00 | 15.17707 | -76.93204 | 37986 ft | 462 kts | 345° |
| 2026-05-08 15:00 | 15.23894 | -76.94995 | 37990 ft | 462 kts | 345° |
| 2026-05-08 15:01 | 15.30081 | -76.96809 | 37998 ft | 462 kts | 344° |
| 2026-05-08 15:01 | 15.36274 | -76.98631 | 37993 ft | 462 kts | 345° |
| 2026-05-08 15:02 | 15.41423 | -77.00145 | 37989 ft | 463 kts | 345° |
| 2026-05-08 15:02 | 15.47611 | -77.01964 | 37995 ft | 462 kts | 345° |
| 2026-05-08 15:03 | 15.54804 | -77.04081 | 37993 ft | 462 kts | 345° |
| 2026-05-08 15:03 | 15.59986 | -77.05606 | 37994 ft | 462 kts | 344° |
| 2026-05-08 15:04 | 15.66174 | -77.07428 | 37997 ft | 462 kts | 345° |
| 2026-05-08 15:04 | 15.72360 | -77.09251 | 37999 ft | 462 kts | 345° |
| 2026-05-08 15:05 | 15.78542 | -77.11074 | 37997 ft | 462 kts | 345° |
| 2026-05-08 15:05 | 15.84684 | -77.12887 | 37998 ft | 462 kts | 345° |
| 2026-05-08 15:06 | 15.90908 | -77.14724 | 37997 ft | 462 kts | 345° |
| 2026-05-08 15:06 | 15.97088 | -77.16550 | 38009 ft | 462 kts | 345° |
| 2026-05-08 15:07 | 16.03273 | -77.18379 | 38007 ft | 462 kts | 345° |
| 2026-05-08 15:07 | 16.09410 | -77.20195 | 38007 ft | 462 kts | 345° |
| 2026-05-08 15:08 | 16.15594 | -77.22025 | 38007 ft | 462 kts | 345° |
| 2026-05-08 15:08 | 16.21781 | -77.23858 | 37997 ft | 462 kts | 345° |
| 2026-05-08 15:09 | 16.27970 | -77.25692 | 38010 ft | 463 kts | 345° |
| 2026-05-08 15:09 | 16.34168 | -77.27531 | 38011 ft | 463 kts | 345° |
| 2026-05-08 15:10 | 16.40366 | -77.29371 | 38010 ft | 463 kts | 345° |
| 2026-05-08 15:10 | 16.46569 | -77.31213 | 38012 ft | 463 kts | 345° |
| 2026-05-08 15:11 | 16.52776 | -77.33058 | 38016 ft | 464 kts | 345° |
| 2026-05-08 15:11 | 16.58980 | -77.34903 | 38014 ft | 464 kts | 345° |
| 2026-05-08 15:12 | 16.65184 | -77.36749 | 38012 ft | 464 kts | 345° |
| 2026-05-08 15:12 | 16.71389 | -77.38597 | 38016 ft | 464 kts | 345° |
| 2026-05-08 15:13 | 16.77588 | -77.40444 | 38015 ft | 463 kts | 345° |
| 2026-05-08 15:13 | 16.83790 | -77.42294 | 38019 ft | 463 kts | 345° |
| 2026-05-08 15:14 | 16.89981 | -77.44141 | 38018 ft | 463 kts | 345° |
| 2026-05-08 15:14 | 16.96184 | -77.45994 | 38020 ft | 463 kts | 345° |
| 2026-05-08 15:15 | 17.02381 | -77.47845 | 38020 ft | 463 kts | 345° |
| 2026-05-08 15:15 | 17.08565 | -77.49695 | 38015 ft | 463 kts | 345° |
| 2026-05-08 15:16 | 17.14756 | -77.51547 | 38017 ft | 462 kts | 345° |
| 2026-05-08 15:16 | 17.20939 | -77.53399 | 38016 ft | 462 kts | 345° |
| 2026-05-08 15:17 | 17.27120 | -77.55251 | 38022 ft | 462 kts | 344° |
| 2026-05-08 15:17 | 17.33294 | -77.57103 | 38022 ft | 462 kts | 344° |
| 2026-05-08 15:18 | 17.36395 | -77.58033 | 37653 ft | 467 kts | 344° |
| 2026-05-08 15:18 | 17.39506 | -77.58966 | 37139 ft | 463 kts | 344° |
| 2026-05-08 15:18 | 17.42599 | -77.59895 | 36474 ft | 462 kts | 344° |
| 2026-05-08 15:18 | 17.45693 | -77.60825 | 35846 ft | 462 kts | 344° |
| 2026-05-08 15:19 | 17.48786 | -77.61754 | 35128 ft | 464 kts | 344° |
| 2026-05-08 15:19 | 17.51896 | -77.62689 | 34382 ft | 466 kts | 344° |
| 2026-05-08 15:19 | 17.55022 | -77.63629 | 33565 ft | 469 kts | 344° |
| 2026-05-08 15:19 | 17.58169 | -77.64576 | 32740 ft | 470 kts | 345° |
| 2026-05-08 15:20 | 17.61309 | -77.65521 | 31922 ft | 470 kts | 345° |
| 2026-05-08 15:20 | 17.64454 | -77.66468 | 31122 ft | 470 kts | 345° |
| 2026-05-08 15:20 | 17.67603 | -77.67417 | 30297 ft | 471 kts | 345° |
| 2026-05-08 15:20 | 17.70755 | -77.68367 | 29262 ft | 472 kts | 345° |
| 2026-05-08 15:21 | 17.73912 | -77.69319 | 28240 ft | 473 kts | 345° |
| 2026-05-08 15:21 | 17.77074 | -77.70274 | 27198 ft | 473 kts | 346° |
| 2026-05-08 15:21 | 17.80239 | -77.71230 | 26143 ft | 474 kts | 346° |
| 2026-05-08 15:21 | 17.83361 | -77.72173 | 25339 ft | 470 kts | 346° |
| 2026-05-08 15:22 | 17.86475 | -77.73120 | 24621 ft | 464 kts | 345° |
| 2026-05-08 15:22 | 17.89453 | -77.74404 | 23859 ft | 462 kts | 335° |
| 2026-05-08 15:22 | 17.92146 | -77.76236 | 23015 ft | 462 kts | 326° |
| 2026-05-08 15:22 | 17.94641 | -77.78344 | 22140 ft | 459 kts | 323° |
| 2026-05-08 15:23 | 17.97074 | -77.80504 | 21267 ft | 456 kts | 322° |
| 2026-05-08 15:23 | 17.99479 | -77.82667 | 20404 ft | 454 kts | 322° |
| 2026-05-08 15:23 | 18.01841 | -77.84804 | 19442 ft | 444 kts | 322° |
| 2026-05-08 15:23 | 18.04166 | -77.86913 | 18350 ft | 442 kts | 322° |
| 2026-05-08 15:24 | 18.06493 | -77.89022 | 17155 ft | 439 kts | 322° |
| 2026-05-08 15:24 | 18.08799 | -77.91104 | 16126 ft | 433 kts | 322° |
| 2026-05-08 15:24 | 18.11066 | -77.93141 | 15175 ft | 425 kts | 322° |
| 2026-05-08 15:24 | 18.13302 | -77.95139 | 14253 ft | 418 kts | 322° |
| 2026-05-08 15:25 | 18.15532 | -77.97073 | 13239 ft | 412 kts | 324° |
| 2026-05-08 15:25 | 18.17827 | -77.98839 | 12229 ft | 406 kts | 326° |
| 2026-05-08 15:25 | 18.20129 | -78.00525 | 11312 ft | 400 kts | 327° |
| 2026-05-08 15:25 | 18.22407 | -78.02154 | 10534 ft | 391 kts | 327° |
| 2026-05-08 15:26 | 18.24582 | -78.03709 | 10303 ft | 364 kts | 324° |
| 2026-05-08 15:26 | 18.26377 | -78.05451 | 10171 ft | 339 kts | 314° |
| 2026-05-08 15:26 | 18.27925 | -78.07220 | 10054 ft | 318 kts | 313° |
| 2026-05-08 15:26 | 18.29354 | -78.08897 | 10000 ft | 297 kts | 313° |
| 2026-05-08 15:27 | 18.30680 | -78.10463 | 9984 ft | 277 kts | 312° |
| 2026-05-08 15:27 | 18.31915 | -78.11928 | 9962 ft | 259 kts | 312° |
| 2026-05-08 15:27 | 18.33066 | -78.13296 | 9854 ft | 241 kts | 312° |
| 2026-05-08 15:27 | 18.34162 | -78.14600 | 9436 ft | 237 kts | 312° |
| 2026-05-08 15:28 | 18.35390 | -78.15728 | 8866 ft | 235 kts | 334° |
| 2026-05-08 15:28 | 18.36953 | -78.16155 | 8329 ft | 232 kts | 358° |
| 2026-05-08 15:28 | 18.38513 | -78.16542 | 7800 ft | 234 kts | 336° |
| 2026-05-08 15:28 | 18.39949 | -78.17348 | 7322 ft | 233 kts | 333° |
| 2026-05-08 15:29 | 18.41355 | -78.18193 | 6820 ft | 233 kts | 333° |
| 2026-05-08 15:29 | 18.42756 | -78.19043 | 6343 ft | 232 kts | 332° |
| 2026-05-08 15:29 | 18.44174 | -78.19853 | 5799 ft | 231 kts | 342° |
| 2026-05-08 15:29 | 18.45718 | -78.19993 | 5355 ft | 220 kts | 17° |
| 2026-05-08 15:30 | 18.47002 | -78.19237 | 4865 ft | 210 kts | 51° |
| 2026-05-08 15:30 | 18.47603 | -78.17888 | 4351 ft | 204 kts | 85° |
| 2026-05-08 15:30 | 18.47295 | -78.16507 | 4122 ft | 189 kts | 121° |
| 2026-05-08 15:30 | 18.46580 | -78.15379 | 3832 ft | 184 kts | 122° |
| 2026-05-08 15:31 | 18.45879 | -78.14249 | 3474 ft | 184 kts | 122° |
| 2026-05-08 15:31 | 18.45184 | -78.13115 | 3159 ft | 184 kts | 122° |
| 2026-05-08 15:31 | 18.44484 | -78.11997 | 3050 ft | 186 kts | 122° |
| 2026-05-08 15:31 | 18.43757 | -78.10854 | 3011 ft | 187 kts | 122° |
| 2026-05-08 15:32 | 18.43073 | -78.09714 | 2996 ft | 182 kts | 112° |
| 2026-05-08 15:32 | 18.43052 | -78.08435 | 3007 ft | 181 kts | 70° |
| 2026-05-08 15:32 | 18.43552 | -78.07181 | 2906 ft | 191 kts | 69° |
| 2026-05-08 15:32 | 18.44080 | -78.05889 | 2660 ft | 191 kts | 67° |
| 2026-05-08 15:33 | 18.44620 | -78.04623 | 2420 ft | 188 kts | 66° |
| 2026-05-08 15:33 | 18.45157 | -78.03380 | 2181 ft | 185 kts | 66° |
| 2026-05-08 15:33 | 18.45695 | -78.02142 | 1938 ft | 188 kts | 66° |
| 2026-05-08 15:33 | 18.46233 | -78.00890 | 1698 ft | 186 kts | 66° |
| 2026-05-08 15:34 | 18.46761 | -77.99668 | 1463 ft | 181 kts | 65° |
| 2026-05-08 15:34 | 18.47274 | -77.98483 | 1228 ft | 172 kts | 66° |
| 2026-05-08 15:34 | 18.47751 | -77.97381 | 1055 ft | 156 kts | 65° |
| 2026-05-08 15:34 | 18.48182 | -77.96383 | 823 ft | 143 kts | 65° |
| 2026-05-08 15:35 | 18.48589 | -77.95442 | 684 ft | 141 kts | 65° |
| 2026-05-08 15:35 | 18.49000 | -77.94495 | 475 ft | 142 kts | 64° |
| 2026-05-08 15:35 | 18.49396 | -77.93554 | 284 ft | 139 kts | 64° |
| 2026-05-08 15:35 | 18.49789 | -77.92652 | 101 ft | 133 kts | 64° |
| 2026-05-08 15:36 | 18.50169 | -77.91789 | 13 ft | 121 kts | 64° |
| 2026-05-08 15:36 | 18.50373 | -77.91320 | 11 ft | 92 kts | 65° |
| 2026-05-08 15:36 | 18.50536 | -77.90800 | 12 ft | 33 kts | 94° |
| 2026-05-08 15:36 | 18.50499 | -77.90666 | 10 ft | 17 kts | 161° |
| 2026-05-08 15:37 | 18.50440 | -77.90738 | 10 ft | 13 kts | 245° |
| 2026-05-08 15:37 | 18.50403 | -77.90824 | 10 ft | 13 kts | 246° |
| 2026-05-08 15:37 | 18.50366 | -77.90908 | 11 ft | 12 kts | 245° |
| 2026-05-08 15:37 | 18.50331 | -77.90990 | 9 ft | 12 kts | 246° |
| 2026-05-08 15:38 | 18.50297 | -77.91070 | 10 ft | 12 kts | 246° |
| 2026-05-08 15:38 | 18.50263 | -77.91147 | 10 ft | 11 kts | 245° |
| 2026-05-08 15:38 | 18.50230 | -77.91223 | 9 ft | 11 kts | 245° |
| 2026-05-08 15:38 | 18.50199 | -77.91296 | 9 ft | 11 kts | 245° |
| 2026-05-08 15:39 | 18.50143 | -77.91311 | 9 ft | 9 kts | 166° |
| 2026-05-08 15:39 | 18.50100 | -77.91353 | 9 ft | 9 kts | 244° |
| 2026-05-08 15:39 | 18.50074 | -77.91411 | 9 ft | 9 kts | 245° |
| 2026-05-08 15:39 | 18.50050 | -77.91448 | 11 ft | 5 kts | 203° |
| 2026-05-08 15:40 | 18.50017 | -77.91441 | 9 ft | 5 kts | 160° |
| 2026-05-08 15:40 | 18.49987 | -77.91427 | 9 ft | 4 kts | 155° |
| 2026-05-08 15:40 | 18.49977 | -77.91423 | 9 ft | 0 kts | 155° |